sensor_id;sensor_type;location;lat;lon;timestamp;temperature;humidity
52435;DHT22;38354;52.892;6.148;2023-06-10T04:00:36;15.70;99.90
52435;DHT22;38354;52.892;6.148;2023-06-10T04:03:08;15.70;99.90
52435;DHT22;38354;52.892;6.148;2023-06-10T04:05:35;15.70;99.90
52435;DHT22;38354;52.892;6.148;2023-06-10T04:08:00;15.70;99.90
52435;DHT22;38354;52.892;6.148;2023-06-10T04:10:27;15.70;99.90
52435;DHT22;38354;52.892;6.148;2023-06-10T04:12:53;15.80;99.90
52435;DHT22;38354;52.892;6.148;2023-06-10T04:15:19;15.70;99.90
52435;DHT22;38354;52.892;6.148;2023-06-10T04:17:44;15.70;99.90
52435;DHT22;38354;52.892;6.148;2023-06-10T04:20:11;15.70;99.90
52435;DHT22;38354;52.892;6.148;2023-06-10T04:22:36;15.80;99.90
52435;DHT22;38354;52.892;6.148;2023-06-10T04:25:02;15.70;99.90
52435;DHT22;38354;52.892;6.148;2023-06-10T04:27:29;15.70;99.90
52435;DHT22;38354;52.892;6.148;2023-06-10T04:29:54;15.70;99.90
52435;DHT22;38354;52.892;6.148;2023-06-10T04:32:20;15.70;99.90
52435;DHT22;38354;52.892;6.148;2023-06-10T04:34:45;15.70;99.90
52435;DHT22;38354;52.892;6.148;2023-06-10T04:37:11;15.70;99.90
52435;DHT22;38354;52.892;6.148;2023-06-10T04:39:37;15.70;99.90
52435;DHT22;38354;52.892;6.148;2023-06-10T04:42:03;15.70;99.90
52435;DHT22;38354;52.892;6.148;2023-06-10T04:44:28;15.70;99.90
52435;DHT22;38354;52.892;6.148;2023-06-10T04:46:55;15.70;99.90
52435;DHT22;38354;52.892;6.148;2023-06-10T04:49:21;15.70;99.90
52435;DHT22;38354;52.892;6.148;2023-06-10T04:51:47;15.70;99.90
52435;DHT22;38354;52.892;6.148;2023-06-10T04:54:12;15.80;99.90
52435;DHT22;38354;52.892;6.148;2023-06-10T04:56:38;15.70;99.90
52435;DHT22;38354;52.892;6.148;2023-06-10T04:59:04;15.80;99.90
52435;DHT22;38354;52.892;6.148;2023-06-10T05:01:30;15.80;99.90
52435;DHT22;38354;52.892;6.148;2023-06-10T05:03:56;15.80;99.90
52435;DHT22;38354;52.892;6.148;2023-06-10T05:06:21;15.80;99.90
52435;DHT22;38354;52.892;6.148;2023-06-10T05:08:47;15.80;99.90
52435;DHT22;38354;52.892;6.148;2023-06-10T05:11:13;15.90;99.90
52435;DHT22;38354;52.892;6.148;2023-06-10T05:13:38;15.90;99.90
52435;DHT22;38354;52.892;6.148;2023-06-10T05:16:05;15.90;99.90
52435;DHT22;38354;52.892;6.148;2023-06-10T05:18:32;15.90;99.90
52435;DHT22;38354;52.892;6.148;2023-06-10T05:20:57;15.90;99.90
52435;DHT22;38354;52.892;6.148;2023-06-10T05:23:23;15.90;99.90
52435;DHT22;38354;52.892;6.148;2023-06-10T05:25:50;15.90;99.90
52435;DHT22;38354;52.892;6.148;2023-06-10T05:28:16;15.90;99.90
52435;DHT22;38354;52.892;6.148;2023-06-10T05:30:41;16.00;99.90
52435;DHT22;38354;52.892;6.148;2023-06-10T05:33:07;16.00;99.90
52435;DHT22;38354;52.892;6.148;2023-06-10T05:35:33;16.00;99.90
52435;DHT22;38354;52.892;6.148;2023-06-10T05:37:58;16.00;99.90
52435;DHT22;38354;52.892;6.148;2023-06-10T05:40:24;16.10;99.90
52435;DHT22;38354;52.892;6.148;2023-06-10T05:42:50;16.10;99.90
52435;DHT22;38354;52.892;6.148;2023-06-10T05:45:15;16.10;99.90
52435;DHT22;38354;52.892;6.148;2023-06-10T05:47:41;16.20;99.90
52435;DHT22;38354;52.892;6.148;2023-06-10T05:50:07;16.20;99.90
52435;DHT22;38354;52.892;6.148;2023-06-10T05:52:37;16.20;99.90
52435;DHT22;38354;52.892;6.148;2023-06-10T05:55:05;16.20;99.90
52435;DHT22;38354;52.892;6.148;2023-06-10T05:57:31;16.30;99.90
52435;DHT22;38354;52.892;6.148;2023-06-10T05:59:57;16.30;99.90
52435;DHT22;38354;52.892;6.148;2023-06-10T06:02:23;16.30;99.90
52435;DHT22;38354;52.892;6.148;2023-06-10T06:04:48;16.40;99.90
52435;DHT22;38354;52.892;6.148;2023-06-10T06:07:14;16.40;99.90
52435;DHT22;38354;52.892;6.148;2023-06-10T06:09:40;16.40;99.90
52435;DHT22;38354;52.892;6.148;2023-06-10T06:12:06;16.50;99.90
52435;DHT22;38354;52.892;6.148;2023-06-10T06:14:32;16.50;99.90
52435;DHT22;38354;52.892;6.148;2023-06-10T06:17:02;16.60;99.90
52435;DHT22;38354;52.892;6.148;2023-06-10T06:19:28;16.60;99.90
52435;DHT22;38354;52.892;6.148;2023-06-10T06:21:53;16.70;99.90
52435;DHT22;38354;52.892;6.148;2023-06-10T06:24:19;16.70;99.90
52435;DHT22;38354;52.892;6.148;2023-06-10T06:26:44;16.70;99.90
52435;DHT22;38354;52.892;6.148;2023-06-10T06:29:10;16.80;99.90
52435;DHT22;38354;52.892;6.148;2023-06-10T06:31:36;16.80;99.90
52435;DHT22;38354;52.892;6.148;2023-06-10T06:34:05;16.90;99.90
52435;DHT22;38354;52.892;6.148;2023-06-10T06:36:30;16.90;99.90
52435;DHT22;38354;52.892;6.148;2023-06-10T06:38:56;16.90;99.90
52435;DHT22;38354;52.892;6.148;2023-06-10T06:41:22;17.00;99.90
52435;DHT22;38354;52.892;6.148;2023-06-10T06:43:48;17.00;99.90
52435;DHT22;38354;52.892;6.148;2023-06-10T06:46:14;17.00;99.90
52435;DHT22;38354;52.892;6.148;2023-06-10T06:48:41;17.00;99.90
52435;DHT22;38354;52.892;6.148;2023-06-10T06:51:06;17.10;99.90
52435;DHT22;38354;52.892;6.148;2023-06-10T06:53:32;17.10;99.90
52435;DHT22;38354;52.892;6.148;2023-06-10T06:55:58;17.20;99.90
52435;DHT22;38354;52.892;6.148;2023-06-10T06:58:23;17.20;99.90
52435;DHT22;38354;52.892;6.148;2023-06-10T07:00:49;17.30;99.90
52435;DHT22;38354;52.892;6.148;2023-06-10T07:03:14;17.30;99.90
52435;DHT22;38354;52.892;6.148;2023-06-10T07:05:41;17.40;99.90
52435;DHT22;38354;52.892;6.148;2023-06-10T07:08:06;17.50;99.90
52435;DHT22;38354;52.892;6.148;2023-06-10T07:10:32;17.50;99.90
52435;DHT22;38354;52.892;6.148;2023-06-10T07:12:58;17.60;99.90
52435;DHT22;38354;52.892;6.148;2023-06-10T07:15:24;17.70;99.90
52435;DHT22;38354;52.892;6.148;2023-06-10T07:17:49;17.80;99.90
52435;DHT22;38354;52.892;6.148;2023-06-10T07:20:15;17.90;99.90
52435;DHT22;38354;52.892;6.148;2023-06-10T07:22:42;18.00;99.90
52435;DHT22;38354;52.892;6.148;2023-06-10T07:25:07;18.00;99.90
52435;DHT22;38354;52.892;6.148;2023-06-10T07:27:33;18.20;99.90
52435;DHT22;38354;52.892;6.148;2023-06-10T07:29:59;18.20;99.90
52435;DHT22;38354;52.892;6.148;2023-06-10T07:32:26;18.30;99.90
52435;DHT22;38354;52.892;6.148;2023-06-10T07:34:53;18.40;99.90
52435;DHT22;38354;52.892;6.148;2023-06-10T07:37:18;18.50;99.90
52435;DHT22;38354;52.892;6.148;2023-06-10T07:39:45;18.60;99.90
52435;DHT22;38354;52.892;6.148;2023-06-10T07:42:10;18.70;99.90
52435;DHT22;38354;52.892;6.148;2023-06-10T07:44:36;18.80;99.90
52435;DHT22;38354;52.892;6.148;2023-06-10T07:47:02;18.90;99.90
52435;DHT22;38354;52.892;6.148;2023-06-10T07:49:28;19.00;99.90
52435;DHT22;38354;52.892;6.148;2023-06-10T07:51:56;19.10;99.90
52435;DHT22;38354;52.892;6.148;2023-06-10T07:54:22;19.20;99.90
52435;DHT22;38354;52.892;6.148;2023-06-10T07:56:48;19.30;99.90
52435;DHT22;38354;52.892;6.148;2023-06-10T07:59:14;19.30;99.90
52435;DHT22;38354;52.892;6.148;2023-06-10T08:01:39;19.50;99.90
52435;DHT22;38354;52.892;6.148;2023-06-10T08:04:06;19.60;99.90
52435;DHT22;38354;52.892;6.148;2023-06-10T08:06:32;19.70;99.90
52435;DHT22;38354;52.892;6.148;2023-06-10T08:08:58;19.80;99.90
52435;DHT22;38354;52.892;6.148;2023-06-10T08:11:23;19.90;99.90
52435;DHT22;38354;52.892;6.148;2023-06-10T08:13:49;20.00;99.90
52435;DHT22;38354;52.892;6.148;2023-06-10T08:16:16;20.10;99.90
52435;DHT22;38354;52.892;6.148;2023-06-10T08:18:41;20.20;99.90
52435;DHT22;38354;52.892;6.148;2023-06-10T08:21:07;20.40;99.90
52435;DHT22;38354;52.892;6.148;2023-06-10T08:23:33;20.40;99.90
52435;DHT22;38354;52.892;6.148;2023-06-10T08:25:58;20.50;99.90
52435;DHT22;38354;52.892;6.148;2023-06-10T08:28:24;20.60;99.90
52435;DHT22;38354;52.892;6.148;2023-06-10T08:30:49;20.70;99.90
52435;DHT22;38354;52.892;6.148;2023-06-10T08:33:15;20.80;99.90
52435;DHT22;38354;52.892;6.148;2023-06-10T08:35:41;20.90;99.90
52435;DHT22;38354;52.892;6.148;2023-06-10T08:38:06;21.00;99.90
52435;DHT22;38354;52.892;6.148;2023-06-10T08:40:33;21.20;99.90
52435;DHT22;38354;52.892;6.148;2023-06-10T08:45:24;21.40;99.90
52435;DHT22;38354;52.892;6.148;2023-06-10T08:47:53;21.50;99.90
52435;DHT22;38354;52.892;6.148;2023-06-10T08:50:19;21.70;99.90
52435;DHT22;38354;52.892;6.148;2023-06-10T08:52:48;21.90;99.90
52435;DHT22;38354;52.892;6.148;2023-06-10T08:55:18;21.90;99.90
52435;DHT22;38354;52.892;6.148;2023-06-10T08:57:48;22.00;99.90
52435;DHT22;38354;52.892;6.148;2023-06-10T09:00:16;22.10;99.90
52435;DHT22;38354;52.892;6.148;2023-06-10T09:02:43;22.20;99.90
52435;DHT22;38354;52.892;6.148;2023-06-10T09:05:09;22.30;99.90
52435;DHT22;38354;52.892;6.148;2023-06-10T09:07:35;22.40;99.90
52435;DHT22;38354;52.892;6.148;2023-06-10T09:10:02;22.50;99.90
52435;DHT22;38354;52.892;6.148;2023-06-10T09:12:29;22.60;99.90
52435;DHT22;38354;52.892;6.148;2023-06-10T09:14:55;22.80;99.90
52435;DHT22;38354;52.892;6.148;2023-06-10T09:17:22;22.90;99.90
52435;DHT22;38354;52.892;6.148;2023-06-10T09:19:47;23.10;99.90
52435;DHT22;38354;52.892;6.148;2023-06-10T09:22:14;23.20;99.90
52435;DHT22;38354;52.892;6.148;2023-06-10T09:24:40;23.30;99.90
52435;DHT22;38354;52.892;6.148;2023-06-10T09:27:08;23.40;99.90
52435;DHT22;38354;52.892;6.148;2023-06-10T09:29:53;23.60;99.90
52435;DHT22;38354;52.892;6.148;2023-06-10T09:32:20;23.70;99.90
52435;DHT22;38354;52.892;6.148;2023-06-10T09:34:47;23.80;99.90
52435;DHT22;38354;52.892;6.148;2023-06-10T09:37:19;24.00;99.90
52435;DHT22;38354;52.892;6.148;2023-06-10T09:39:45;24.10;99.90
52435;DHT22;38354;52.892;6.148;2023-06-10T09:42:19;24.20;99.90
52435;DHT22;38354;52.892;6.148;2023-06-10T09:44:51;24.30;99.90
52435;DHT22;38354;52.892;6.148;2023-06-10T09:47:23;24.40;99.90
52435;DHT22;38354;52.892;6.148;2023-06-10T09:49:49;24.50;99.90
52435;DHT22;38354;52.892;6.148;2023-06-10T09:52:22;24.60;99.90
52435;DHT22;38354;52.892;6.148;2023-06-10T09:54:48;24.70;99.90
52435;DHT22;38354;52.892;6.148;2023-06-10T09:57:14;24.80;99.90
52435;DHT22;38354;52.892;6.148;2023-06-10T09:59:42;24.90;99.90
52435;DHT22;38354;52.892;6.148;2023-06-10T10:02:16;25.00;99.90
52435;DHT22;38354;52.892;6.148;2023-06-10T10:04:43;25.20;99.90
52435;DHT22;38354;52.892;6.148;2023-06-10T10:07:10;25.30;99.90
52435;DHT22;38354;52.892;6.148;2023-06-10T10:09:39;25.40;99.90
52435;DHT22;38354;52.892;6.148;2023-06-10T10:12:14;25.50;99.90
52435;DHT22;38354;52.892;6.148;2023-06-10T10:14:45;25.60;99.90
52435;DHT22;38354;52.892;6.148;2023-06-10T10:17:14;25.70;99.90
52435;DHT22;38354;52.892;6.148;2023-06-10T10:19:48;25.80;99.90
52435;DHT22;38354;52.892;6.148;2023-06-10T10:22:38;26.00;99.90
52435;DHT22;38354;52.892;6.148;2023-06-10T10:25:11;26.10;99.90
52435;DHT22;38354;52.892;6.148;2023-06-10T10:30:11;26.30;98.70
52435;DHT22;38354;52.892;6.148;2023-06-10T10:32:44;26.40;98.50
52435;DHT22;38354;52.892;6.148;2023-06-10T10:35:20;26.50;98.10
52435;DHT22;38354;52.892;6.148;2023-06-10T10:37:53;26.60;97.10
52435;DHT22;38354;52.892;6.148;2023-06-10T10:40:22;26.70;96.80
52435;DHT22;38354;52.892;6.148;2023-06-10T10:42:50;26.80;96.00
52435;DHT22;38354;52.892;6.148;2023-06-10T10:45:16;26.90;94.60
52435;DHT22;38354;52.892;6.148;2023-06-10T10:47:45;26.90;94.00
52435;DHT22;38354;52.892;6.148;2023-06-10T10:50:18;27.00;92.70
52435;DHT22;38354;52.892;6.148;2023-06-10T10:53:00;27.10;91.40
52435;DHT22;38354;52.892;6.148;2023-06-10T10:55:27;27.20;87.50
52435;DHT22;38354;52.892;6.148;2023-06-10T10:57:54;27.30;85.30
52435;DHT22;38354;52.892;6.148;2023-06-10T11:00:27;27.50;85.90
52435;DHT22;38354;52.892;6.148;2023-06-10T11:02:53;27.60;85.80
52435;DHT22;38354;52.892;6.148;2023-06-10T11:05:41;27.70;85.60
52435;DHT22;38354;52.892;6.148;2023-06-10T11:08:10;27.70;84.60
52435;DHT22;38354;52.892;6.148;2023-06-10T11:10:37;27.80;82.40
52435;DHT22;38354;52.892;6.148;2023-06-10T11:13:29;27.80;80.80
52435;DHT22;38354;52.892;6.148;2023-06-10T11:15:58;28.00;81.50
52435;DHT22;38354;52.892;6.148;2023-06-10T11:18:30;28.00;79.70
52435;DHT22;38354;52.892;6.148;2023-06-10T11:21:04;28.10;78.30
52435;DHT22;38354;52.892;6.148;2023-06-10T11:23:50;28.20;77.60
52435;DHT22;38354;52.892;6.148;2023-06-10T11:31:28;28.40;75.40
52435;DHT22;38354;52.892;6.148;2023-06-10T11:34:13;28.60;75.90
52435;DHT22;38354;52.892;6.148;2023-06-10T11:36:41;28.70;74.90
52435;DHT22;38354;52.892;6.148;2023-06-10T11:39:08;28.70;73.30
52435;DHT22;38354;52.892;6.148;2023-06-10T11:41:36;28.80;72.00
52435;DHT22;38354;52.892;6.148;2023-06-10T11:44:04;28.80;70.40
52435;DHT22;38354;52.892;6.148;2023-06-10T11:46:34;28.80;70.00
52435;DHT22;38354;52.892;6.148;2023-06-10T11:49:00;28.90;68.90
52435;DHT22;38354;52.892;6.148;2023-06-10T11:51:36;28.90;66.80
52435;DHT22;38354;52.892;6.148;2023-06-10T11:54:03;28.90;65.60
52435;DHT22;38354;52.892;6.148;2023-06-10T11:56:30;29.00;64.80
52435;DHT22;38354;52.892;6.148;2023-06-10T11:58:57;29.00;64.50
52435;DHT22;38354;52.892;6.148;2023-06-10T12:01:25;29.00;63.80
52435;DHT22;38354;52.892;6.148;2023-06-10T12:04:12;29.10;63.60
52435;DHT22;38354;52.892;6.148;2023-06-10T12:06:45;29.20;62.00
52435;DHT22;38354;52.892;6.148;2023-06-10T12:09:28;29.20;62.00
52435;DHT22;38354;52.892;6.148;2023-06-10T12:11:57;29.30;62.20
52435;DHT22;38354;52.892;6.148;2023-06-10T12:14:53;29.30;60.90
52435;DHT22;38354;52.892;6.148;2023-06-10T12:20:03;29.30;59.60
52435;DHT22;38354;52.892;6.148;2023-06-10T12:22:37;29.40;58.90
52435;DHT22;38354;52.892;6.148;2023-06-10T12:25:05;29.40;57.60
52435;DHT22;38354;52.892;6.148;2023-06-10T12:27:32;29.50;57.20
52435;DHT22;38354;52.892;6.148;2023-06-10T12:30:00;29.50;56.30
52435;DHT22;38354;52.892;6.148;2023-06-10T12:32:44;29.50;56.60
52435;DHT22;38354;52.892;6.148;2023-06-10T12:35:12;29.60;56.60
52435;DHT22;38354;52.892;6.148;2023-06-10T12:37:41;29.70;55.70
52435;DHT22;38354;52.892;6.148;2023-06-10T12:40:07;29.70;55.40
52435;DHT22;38354;52.892;6.148;2023-06-10T12:42:37;29.70;56.10
52435;DHT22;38354;52.892;6.148;2023-06-10T12:45:04;29.90;56.10
52435;DHT22;38354;52.892;6.148;2023-06-10T12:47:32;29.90;55.20
52435;DHT22;38354;52.892;6.148;2023-06-10T12:50:01;30.00;55.50
52435;DHT22;38354;52.892;6.148;2023-06-10T12:52:26;30.00;54.40
52435;DHT22;38354;52.892;6.148;2023-06-10T12:54:53;30.10;53.70
52435;DHT22;38354;52.892;6.148;2023-06-10T12:57:20;30.00;50.40
52435;DHT22;38354;52.892;6.148;2023-06-10T12:59:48;30.00;50.60
52435;DHT22;38354;52.892;6.148;2023-06-10T13:02:22;30.10;52.20
52435;DHT22;38354;52.892;6.148;2023-06-10T13:04:52;30.10;51.00
52435;DHT22;38354;52.892;6.148;2023-06-10T13:07:18;30.10;50.60
52435;DHT22;38354;52.892;6.148;2023-06-10T13:09:44;30.10;49.70
52435;DHT22;38354;52.892;6.148;2023-06-10T13:12:09;30.10;49.40
52435;DHT22;38354;52.892;6.148;2023-06-10T13:14:36;30.10;49.80
52435;DHT22;38354;52.892;6.148;2023-06-10T13:17:04;30.10;49.70
52435;DHT22;38354;52.892;6.148;2023-06-10T13:19:31;30.20;49.80
52435;DHT22;38354;52.892;6.148;2023-06-10T13:21:57;30.20;48.60
52435;DHT22;38354;52.892;6.148;2023-06-10T13:24:23;30.10;48.80
52435;DHT22;38354;52.892;6.148;2023-06-10T13:26:49;30.00;47.30
52435;DHT22;38354;52.892;6.148;2023-06-10T13:29:14;30.00;48.60
52435;DHT22;38354;52.892;6.148;2023-06-10T13:31:40;29.90;48.70
52435;DHT22;38354;52.892;6.148;2023-06-10T13:34:06;30.00;50.20
52435;DHT22;38354;52.892;6.148;2023-06-10T13:36:32;30.00;51.00
52435;DHT22;38354;52.892;6.148;2023-06-10T13:38:58;29.90;51.30
52435;DHT22;38354;52.892;6.148;2023-06-10T13:41:23;29.90;51.60
52435;DHT22;38354;52.892;6.148;2023-06-10T13:43:50;29.90;51.00
52435;DHT22;38354;52.892;6.148;2023-06-10T13:46:16;30.00;51.80
52435;DHT22;38354;52.892;6.148;2023-06-10T13:48:41;30.10;51.00
52435;DHT22;38354;52.892;6.148;2023-06-10T13:51:07;30.20;51.00
52435;DHT22;38354;52.892;6.148;2023-06-10T13:53:34;30.20;50.80
52435;DHT22;38354;52.892;6.148;2023-06-10T13:56:00;30.20;51.00
52435;DHT22;38354;52.892;6.148;2023-06-10T13:58:26;30.30;50.10
52435;DHT22;38354;52.892;6.148;2023-06-10T14:00:51;30.30;50.20
52435;DHT22;38354;52.892;6.148;2023-06-10T14:03:17;30.20;50.80
52435;DHT22;38354;52.892;6.148;2023-06-10T14:05:42;30.20;52.30
52435;DHT22;38354;52.892;6.148;2023-06-10T14:08:08;30.20;52.50
52435;DHT22;38354;52.892;6.148;2023-06-10T14:10:34;30.30;53.40
52435;DHT22;38354;52.892;6.148;2023-06-10T14:12:59;30.30;53.00
52435;DHT22;38354;52.892;6.148;2023-06-10T14:15:25;30.40;52.20
52435;DHT22;38354;52.892;6.148;2023-06-10T14:17:51;30.30;52.10
52435;DHT22;38354;52.892;6.148;2023-06-10T14:20:17;30.30;51.60
52435;DHT22;38354;52.892;6.148;2023-06-10T14:22:42;30.20;52.10
52435;DHT22;38354;52.892;6.148;2023-06-10T14:25:08;30.20;52.40
52435;DHT22;38354;52.892;6.148;2023-06-10T14:27:34;30.30;52.70
52435;DHT22;38354;52.892;6.148;2023-06-10T14:29:59;30.30;52.70
52435;DHT22;38354;52.892;6.148;2023-06-10T14:32:25;30.40;53.40
52435;DHT22;38354;52.892;6.148;2023-06-10T14:34:51;30.40;53.70
52435;DHT22;38354;52.892;6.148;2023-06-10T14:37:16;30.50;54.00
52435;DHT22;38354;52.892;6.148;2023-06-10T14:39:42;30.50;54.20
52435;DHT22;38354;52.892;6.148;2023-06-10T14:42:08;30.50;53.70
52435;DHT22;38354;52.892;6.148;2023-06-10T14:44:34;30.50;53.40
52435;DHT22;38354;52.892;6.148;2023-06-10T14:46:59;30.50;53.20
52435;DHT22;38354;52.892;6.148;2023-06-10T14:49:25;30.50;53.10
52435;DHT22;38354;52.892;6.148;2023-06-10T14:51:50;30.50;53.40
52435;DHT22;38354;52.892;6.148;2023-06-10T14:54:16;30.60;53.20
52435;DHT22;38354;52.892;6.148;2023-06-10T14:56:42;30.50;53.30
52435;DHT22;38354;52.892;6.148;2023-06-10T14:59:08;30.50;54.30
52435;DHT22;38354;52.892;6.148;2023-06-10T15:01:33;30.50;55.00
52435;DHT22;38354;52.892;6.148;2023-06-10T15:03:59;30.50;54.70
52435;DHT22;38354;52.892;6.148;2023-06-10T15:06:25;30.50;54.80
52435;DHT22;38354;52.892;6.148;2023-06-10T15:08:50;30.40;54.40
52435;DHT22;38354;52.892;6.148;2023-06-10T15:11:16;30.50;53.90
52435;DHT22;38354;52.892;6.148;2023-06-10T15:13:41;30.40;54.00
52435;DHT22;38354;52.892;6.148;2023-06-10T15:16:07;30.50;54.20
52435;DHT22;38354;52.892;6.148;2023-06-10T15:18:33;30.40;53.80
52435;DHT22;38354;52.892;6.148;2023-06-10T15:20:58;30.40;54.10
52435;DHT22;38354;52.892;6.148;2023-06-10T15:23:24;30.40;54.10
52435;DHT22;38354;52.892;6.148;2023-06-10T15:25:50;30.40;53.30
52435;DHT22;38354;52.892;6.148;2023-06-10T15:28:16;30.40;52.80
52435;DHT22;38354;52.892;6.148;2023-06-10T15:30:41;30.50;53.50
52435;DHT22;38354;52.892;6.148;2023-06-10T15:33:07;30.40;53.40
52435;DHT22;38354;52.892;6.148;2023-06-10T15:35:33;30.30;53.60
52435;DHT22;38354;52.892;6.148;2023-06-10T15:37:59;30.30;53.30
52435;DHT22;38354;52.892;6.148;2023-06-10T15:40:25;30.30;53.00
52435;DHT22;38354;52.892;6.148;2023-06-10T15:42:51;30.20;52.40
52435;DHT22;38354;52.892;6.148;2023-06-10T15:45:16;30.20;52.80
52435;DHT22;38354;52.892;6.148;2023-06-10T15:47:42;30.20;52.00
52435;DHT22;38354;52.892;6.148;2023-06-10T15:50:08;30.20;52.50
52435;DHT22;38354;52.892;6.148;2023-06-10T15:52:34;30.20;52.70
52435;DHT22;38354;52.892;6.148;2023-06-10T15:55:00;30.20;53.80
52435;DHT22;38354;52.892;6.148;2023-06-10T15:57:27;30.20;54.00
52435;DHT22;38354;52.892;6.148;2023-06-10T15:59:52;30.20;53.70
52435;DHT22;38354;52.892;6.148;2023-06-10T16:02:18;30.20;53.30
52435;DHT22;38354;52.892;6.148;2023-06-10T16:04:44;30.20;53.20
52435;DHT22;38354;52.892;6.148;2023-06-10T16:07:09;30.20;52.90
52435;DHT22;38354;52.892;6.148;2023-06-10T16:09:35;30.20;52.20
52435;DHT22;38354;52.892;6.148;2023-06-10T16:12:01;30.20;53.00
52435;DHT22;38354;52.892;6.148;2023-06-10T16:14:28;30.20;53.30
52435;DHT22;38354;52.892;6.148;2023-06-10T16:16:54;30.20;52.90
52435;DHT22;38354;52.892;6.148;2023-06-10T16:19:23;30.10;53.10
52435;DHT22;38354;52.892;6.148;2023-06-10T16:21:49;30.10;52.40
52435;DHT22;38354;52.892;6.148;2023-06-10T16:24:16;30.10;52.50
52435;DHT22;38354;52.892;6.148;2023-06-10T16:26:42;30.00;52.10
52435;DHT22;38354;52.892;6.148;2023-06-10T16:29:07;30.00;52.50
52435;DHT22;38354;52.892;6.148;2023-06-10T16:31:34;29.90;52.40
52435;DHT22;38354;52.892;6.148;2023-06-10T16:33:59;29.90;52.10
52435;DHT22;38354;52.892;6.148;2023-06-10T16:36:25;29.80;51.80
52435;DHT22;38354;52.892;6.148;2023-06-10T16:38:52;29.70;51.90
52435;DHT22;38354;52.892;6.148;2023-06-10T16:41:20;29.70;52.20
52435;DHT22;38354;52.892;6.148;2023-06-10T16:43:45;29.70;52.50
52435;DHT22;38354;52.892;6.148;2023-06-10T16:46:11;29.70;53.20
52435;DHT22;38354;52.892;6.148;2023-06-10T16:48:37;29.70;54.30
52435;DHT22;38354;52.892;6.148;2023-06-10T16:51:02;29.60;54.80
52435;DHT22;38354;52.892;6.148;2023-06-10T16:53:28;29.60;55.10
52435;DHT22;38354;52.892;6.148;2023-06-10T16:55:54;29.50;53.30
52435;DHT22;38354;52.892;6.148;2023-06-10T16:58:20;29.50;52.60
52435;DHT22;38354;52.892;6.148;2023-06-10T17:00:46;29.40;52.40
52435;DHT22;38354;52.892;6.148;2023-06-10T17:03:12;29.40;52.40
52435;DHT22;38354;52.892;6.148;2023-06-10T17:05:38;29.30;51.90
52435;DHT22;38354;52.892;6.148;2023-06-10T17:08:04;29.30;51.60
52435;DHT22;38354;52.892;6.148;2023-06-10T17:10:30;29.30;52.20
52435;DHT22;38354;52.892;6.148;2023-06-10T17:12:55;29.30;53.70
52435;DHT22;38354;52.892;6.148;2023-06-10T17:15:21;29.20;55.40
52435;DHT22;38354;52.892;6.148;2023-06-10T17:17:46;29.20;56.50
52435;DHT22;38354;52.892;6.148;2023-06-10T17:20:12;29.10;57.30
52435;DHT22;38354;52.892;6.148;2023-06-10T17:22:38;29.10;57.50
52435;DHT22;38354;52.892;6.148;2023-06-10T17:25:05;29.00;57.20
52435;DHT22;38354;52.892;6.148;2023-06-10T17:27:30;28.90;56.10
52435;DHT22;38354;52.892;6.148;2023-06-10T17:29:56;28.80;54.50
52435;DHT22;38354;52.892;6.148;2023-06-10T17:32:22;28.70;53.50
52435;DHT22;38354;52.892;6.148;2023-06-10T17:34:47;28.70;53.30
52435;DHT22;38354;52.892;6.148;2023-06-10T17:37:13;28.60;53.70
52435;DHT22;38354;52.892;6.148;2023-06-10T17:39:39;28.50;55.10
52435;DHT22;38354;52.892;6.148;2023-06-10T17:42:05;28.40;56.70
52435;DHT22;38354;52.892;6.148;2023-06-10T17:44:31;28.40;57.60
52435;DHT22;38354;52.892;6.148;2023-06-10T17:46:57;28.40;57.60
52435;DHT22;38354;52.892;6.148;2023-06-10T17:49:23;28.30;58.00
52435;DHT22;38354;52.892;6.148;2023-06-10T17:51:49;28.30;58.30
52435;DHT22;38354;52.892;6.148;2023-06-10T17:54:18;28.10;58.60
52435;DHT22;38354;52.892;6.148;2023-06-10T17:56:45;28.10;59.40
52435;DHT22;38354;52.892;6.148;2023-06-10T17:59:11;28.00;59.40
52435;DHT22;38354;52.892;6.148;2023-06-10T18:01:36;27.90;59.70
52435;DHT22;38354;52.892;6.148;2023-06-10T18:04:03;27.90;60.30
52435;DHT22;38354;52.892;6.148;2023-06-10T18:06:30;27.80;61.00
52435;DHT22;38354;52.892;6.148;2023-06-10T18:08:56;27.80;61.40
52435;DHT22;38354;52.892;6.148;2023-06-10T18:11:21;27.70;61.50
52435;DHT22;38354;52.892;6.148;2023-06-10T18:13:48;27.60;61.90
52435;DHT22;38354;52.892;6.148;2023-06-10T18:16:14;27.60;62.20
52435;DHT22;38354;52.892;6.148;2023-06-10T18:18:40;27.50;62.60
52435;DHT22;38354;52.892;6.148;2023-06-10T18:21:06;27.30;63.40
52435;DHT22;38354;52.892;6.148;2023-06-10T18:23:32;27.30;64.20
52435;DHT22;38354;52.892;6.148;2023-06-10T18:25:58;27.20;65.10
52435;DHT22;38354;52.892;6.148;2023-06-10T18:28:24;27.10;65.00
52435;DHT22;38354;52.892;6.148;2023-06-10T18:30:56;27.00;65.30
52435;DHT22;38354;52.892;6.148;2023-06-10T18:33:22;26.80;65.70
52435;DHT22;38354;52.892;6.148;2023-06-10T18:35:48;26.70;66.00
52435;DHT22;38354;52.892;6.148;2023-06-10T18:38:13;26.60;66.40
52435;DHT22;38354;52.892;6.148;2023-06-10T18:40:40;26.50;66.30
52435;DHT22;38354;52.892;6.148;2023-06-10T18:43:05;26.40;66.60
52435;DHT22;38354;52.892;6.148;2023-06-10T18:45:31;26.30;67.30
52435;DHT22;38354;52.892;6.148;2023-06-10T18:47:57;26.10;68.30
52435;DHT22;38354;52.892;6.148;2023-06-10T18:50:22;26.00;68.70
52435;DHT22;38354;52.892;6.148;2023-06-10T18:52:48;25.80;69.10
52435;DHT22;38354;52.892;6.148;2023-06-10T18:55:14;25.70;69.80
52435;DHT22;38354;52.892;6.148;2023-06-10T18:57:39;25.60;70.20
52435;DHT22;38354;52.892;6.148;2023-06-10T19:00:06;25.50;70.70
52435;DHT22;38354;52.892;6.148;2023-06-10T19:02:31;25.40;71.20
52435;DHT22;38354;52.892;6.148;2023-06-10T19:04:59;25.30;71.10
52435;DHT22;38354;52.892;6.148;2023-06-10T19:07:24;25.20;71.10
52435;DHT22;38354;52.892;6.148;2023-06-10T19:09:50;25.10;71.40
52435;DHT22;38354;52.892;6.148;2023-06-10T19:12:16;25.00;71.80
52435;DHT22;38354;52.892;6.148;2023-06-10T19:14:42;24.90;72.40
52435;DHT22;38354;52.892;6.148;2023-06-10T19:17:09;24.80;72.50
52435;DHT22;38354;52.892;6.148;2023-06-10T19:19:35;24.70;72.40
52435;DHT22;38354;52.892;6.148;2023-06-10T19:22:00;24.60;72.70
52435;DHT22;38354;52.892;6.148;2023-06-10T19:24:26;24.50;72.90
52435;DHT22;38354;52.892;6.148;2023-06-10T19:26:51;24.40;73.60
52435;DHT22;38354;52.892;6.148;2023-06-10T19:29:17;24.30;74.40
52435;DHT22;38354;52.892;6.148;2023-06-10T19:31:43;24.20;75.40
52435;DHT22;38354;52.892;6.148;2023-06-10T19:34:08;24.10;76.70
52435;DHT22;38354;52.892;6.148;2023-06-10T19:36:34;24.10;78.00
52435;DHT22;38354;52.892;6.148;2023-06-10T19:39:00;23.90;79.60
52435;DHT22;38354;52.892;6.148;2023-06-10T19:41:25;23.80;80.90